Campbell River Airport
CYBL : now visible

Airfield :











YOU CAN JOIN US ON...

 
LOGIN :

Register | Disclaimer

   EN    FR    IT 

 









Legend :    VFR   Marginal VFR   IFR   Intensive IFR   Very Intensive IFR
Visi :
Ceiling :
>= 8 km
>= 3000ft
5 to 8 km
1000 to 3000 ft
1500m to 5 km
500 to 1000 ft
800 to 1500m
200 to 500 ft
< 800m
< 200 ft
Symbols :   Thunderstorms  Fog  Heavy snow  Heavy precipitations  Wind > 20 kt






- Airport Elevation : 346 ft
- IATA code : YBL


CYBL - Campbell River

CURRENT METAR :
  • 262300Z 14014KT 25SM VCSH FEW025 BKN070 BKN110 09/05 A2980 RMK CU1AC4AC2 SLP097

EXPIRED METARs :
  • 262200Z 14007G15KT 100V170 25SM VCSH FEW025 BKN070 BKN110 10/04 A2980 RMK CU2AC4AC1 SLP095
  • 262146Z 14005KT 110V190 25SM -SHRA FEW025 BKN070 10/04 A2980 RMK CU2AC5 SLP095
  • 262100Z 14011G17KT 30SM FEW027 BKN060 BKN075 10/05 A2981 RMK CF1SC4AC2 SLP097

TAF AMD TAF CYBL
Valid from the 26 at 19:00 until the 27 at 05:00 UTC


261942Z 2619/2705 13012KT P6SM SCT010 BKN060
TEMPO 2619/2622 5SM -SHRA BR BKN009
BECMG 2620/2622 13012G22KT
FM262200 13012G22KT P6SM -RA SCT008 OVC025
TEMPO 2622/2705 2SM -RA BR OVC008 RMK NXT FCST BY 270100Z



MET'MAP, your aeronautical weather chart ! - Copyright ORBIFLY December 2007 - Disclaimer

ORBIFLY MET'MAP TEAM :

Programming & Development : Alexandra Zaïnal
Concept & original design : Baudouin d'Aumeries
Assistance for programming : Marc-Olivier Méhu
Technical & hardware support : Manuel Goepfert

Contact : metmap@orbifly.com




SOURCES & CREDITS :

   NOAA       Earth
Advisory